Time;durP1;ratioP1;P1;durP2;ratioP2;P2;SDS_P1;SDS_P2;PMS_P1;PMS_P2;Temp;Humidity;BMP_temperature;BMP_pressure;BME280_temperature;BME280_humidity;BME280_pressure;Samples;Min_cycle;Max_cycle;Signal;HPM_P1;HPM_P2
2021/09/15 00:04:50;;;;;;;8.27;4.10;;;;;;;16.58;76.30;101306.94;10186088;28;20088;-69
2021/09/15 00:09:47;;;;;;;8.27;4.72;;;;;;;16.62;76.03;101307.88;10188639;28;21018;-69
2021/09/15 00:14:43;;;;;;;9.07;4.70;;;;;;;16.61;77.00;101305.44;10192219;28;20049;-70
2021/09/15 00:19:40;;;;;;;8.18;4.40;;;;;;;16.56;78.07;101287.16;10184592;28;20499;-69
2021/09/15 00:24:37;;;;;;;7.88;5.28;;;;;;;16.49;79.16;101281.41;10190564;28;20451;-69
2021/09/15 00:29:34;;;;;;;10.45;5.45;;;;;;;16.42;79.71;101281.97;10190571;28;20038;-68
2021/09/15 00:34:31;;;;;;;9.75;5.03;;;;;;;16.38;80.29;101285.75;10187856;28;20500;-68
2021/09/15 00:39:27;;;;;;;8.25;5.13;;;;;;;16.34;80.77;101279.34;10187810;28;20045;-68
2021/09/15 00:44:24;;;;;;;6.80;5.25;;;;;;;16.27;81.33;101284.59;10186952;28;20050;-70
2021/09/15 00:49:20;;;;;;;10.82;4.85;;;;;;;16.29;81.18;101251.94;10184440;28;20088;-70
2021/09/15 00:54:17;;;;;;;6.78;5.35;;;;;;;16.27;81.04;101257.00;10187935;28;20077;-69
2021/09/15 00:59:13;;;;;;;9.63;5.70;;;;;;;16.27;80.64;101251.47;10186545;28;20057;-70
2021/09/15 01:04:10;;;;;;;6.75;5.13;;;;;;;16.27;80.61;101243.19;10179108;28;20456;-69
2021/09/15 01:09:07;;;;;;;6.78;5.07;;;;;;;16.25;80.44;101242.78;10186884;28;20096;-68
2021/09/15 01:14:04;;;;;;;10.65;5.65;;;;;;;16.17;80.49;101237.00;10186464;28;20073;-69
2021/09/15 01:19:01;;;;;;;8.52;5.15;;;;;;;16.18;80.38;101238.63;10187620;28;20061;-69
2021/09/15 01:23:57;;;;;;;10.32;5.57;;;;;;;16.16;80.91;101240.91;10191453;28;20042;-68
2021/09/15 01:28:54;;;;;;;9.60;6.10;;;;;;;16.19;80.56;101231.13;10180540;28;20054;-68
2021/09/15 01:33:50;;;;;;;7.72;5.90;;;;;;;16.21;80.44;101231.59;10187954;28;20072;-70
2021/09/15 01:38:47;;;;;;;8.05;4.68;;;;;;;16.23;80.76;101236.78;10188280;28;20149;-68
2021/09/15 01:43:50;;;;;;;6.88;5.07;;;;;;;16.15;80.76;101239.31;10176482;28;20069;-68
2021/09/15 01:48:46;;;;;;;;;;;;;;;16.23;80.57;101234.03;10183514;28;20069;-69
2021/09/15 01:53:43;;;;;;;8.98;5.95;;;;;;;16.16;80.95;101229.88;10184652;28;19929;-69
2021/09/15 01:58:39;;;;;;;12.95;6.13;;;;;;;16.11;80.65;101221.81;10181844;28;20458;-69
2021/09/15 02:03:36;;;;;;;7.80;5.68;;;;;;;16.13;80.73;101219.53;10180168;28;20137;-69
2021/09/15 02:08:32;;;;;;;8.57;6.57;;;;;;;16.16;80.75;101213.31;10184387;28;20034;-68
2021/09/15 02:13:29;;;;;;;7.82;6.03;;;;;;;16.15;80.35;101211.72;10185931;28;20049;-69
2021/09/15 02:18:25;;;;;;;10.00;5.78;;;;;;;16.16;80.42;101207.81;10188262;28;20073;-69
2021/09/15 02:23:22;;;;;;;10.60;6.18;;;;;;;16.15;80.30;101205.38;10186007;28;20080;-69
2021/09/15 02:28:18;;;;;;;9.48;6.43;;;;;;;16.19;80.25;101206.31;10183715;28;20038;-70
2021/09/15 02:33:14;;;;;;;8.07;5.90;;;;;;;16.20;80.37;101208.72;10192513;28;20145;-71
2021/09/15 02:38:11;;;;;;;8.80;5.65;;;;;;;16.18;80.82;101204.72;10191473;28;20066;-69
2021/09/15 02:43:07;;;;;;;9.27;6.18;;;;;;;16.17;80.49;101198.38;10195503;28;20152;-70
2021/09/15 02:48:05;;;;;;;8.43;5.60;;;;;;;16.19;80.84;101206.31;10191684;28;20042;-70
2021/09/15 02:53:03;;;;;;;8.02;5.93;;;;;;;16.18;80.54;101188.97;10192775;28;20045;-69
2021/09/15 02:57:59;;;;;;;11.00;7.53;;;;;;;16.19;80.73;101195.28;10190130;28;20034;-68
2021/09/15 03:02:56;;;;;;;8.15;5.90;;;;;;;16.20;81.18;101199.66;10189112;28;20042;-72
2021/09/15 03:07:52;;;;;;;8.85;6.22;;;;;;;16.16;81.48;101190.44;10189050;28;20042;-71
2021/09/15 03:12:49;;;;;;;10.77;6.28;;;;;;;16.18;80.73;101191.72;10194353;28;20045;-69
2021/09/15 03:17:45;;;;;;;9.15;7.03;;;;;;;16.16;80.78;101191.25;10190242;28;20125;-69
2021/09/15 03:22:42;;;;;;;8.18;6.10;;;;;;;16.17;81.32;101198.38;10190698;28;20050;-68
2021/09/15 03:27:38;;;;;;;11.65;7.43;;;;;;;16.16;81.34;101163.66;10188508;28;20129;-69
2021/09/15 03:32:35;;;;;;;9.18;7.03;;;;;;;16.06;82.16;101142.06;10191317;28;20065;-68
2021/09/15 03:37:32;;;;;;;10.40;7.60;;;;;;;16.09;81.95;101157.91;10190871;28;20095;-68
2021/09/15 03:42:29;;;;;;;9.05;7.43;;;;;;;16.06;82.08;101175.16;10193934;28;20240;-68
2021/09/15 03:47:26;;;;;;;13.10;8.50;;;;;;;16.06;81.94;101164.13;10181000;28;20052;-68
2021/09/15 03:52:22;;;;;;;12.38;8.70;;;;;;;16.03;83.05;101169.53;10188501;28;20100;-68
2021/09/15 03:57:19;;;;;;;15.60;9.48;;;;;;;15.97;83.48;101138.63;10183304;28;20073;-68
2021/09/15 04:02:15;;;;;;;11.73;8.05;;;;;;;15.85;84.34;101131.16;10190159;28;20132;-68
2021/09/15 04:07:14;;;;;;;11.52;9.95;;;;;;;15.78;84.20;101115.16;10188945;28;20058;-68
2021/09/15 04:12:10;;;;;;;12.50;8.25;;;;;;;15.64;84.90;101125.69;10190767;28;20046;-68
2021/09/15 04:17:07;;;;;;;14.32;8.82;;;;;;;15.74;84.40;101114.25;10188878;28;20530;-68
2021/09/15 04:22:03;;;;;;;14.20;9.80;;;;;;;15.71;84.87;101108.59;10185600;28;20133;-69
2021/09/15 04:32:15;;;;;;;16.90;9.70;;;;;;;15.71;84.83;101137.00;10188115;28;20092;-69
2021/09/15 04:37:11;;;;;;;12.18;9.80;;;;;;;15.74;85.04;101127.22;10186185;28;20088;-68
2021/09/15 04:42:08;;;;;;;17.35;9.80;;;;;;;15.76;85.19;101122.19;10189091;28;21428;-68
2021/09/15 04:47:04;;;;;;;13.32;10.70;;;;;;;15.68;85.59;101118.31;10174657;28;21592;-69
2021/09/15 04:52:01;;;;;;;12.52;8.88;;;;;;;15.68;85.31;101115.56;10184631;28;20080;-68
2021/09/15 04:56:57;;;;;;;13.00;9.40;;;;;;;15.64;85.23;101102.81;10173714;28;20069;-67
2021/09/15 05:01:54;;;;;;;14.38;9.23;;;;;;;15.63;85.35;101101.22;10184787;28;20053;-67
2021/09/15 05:06:52;;;;;;;13.18;10.70;;;;;;;15.58;85.86;101097.53;10184631;28;20042;-67
2021/09/15 05:11:49;;;;;;;14.27;10.52;;;;;;;15.55;85.97;101094.69;10187291;28;20046;-68
2021/09/15 05:16:45;;;;;;;13.05;10.32;;;;;;;15.55;86.40;101100.19;10187526;28;20088;-68
2021/09/15 05:21:42;;;;;;;16.80;10.57;;;;;;;15.57;86.42;101092.34;10182402;28;20046;-67
2021/09/15 05:26:38;;;;;;;13.50;10.68;;;;;;;15.59;86.21;101092.81;10185041;28;20148;-67
2021/09/15 05:31:35;;;;;;;14.10;10.27;;;;;;;15.54;86.24;101084.78;10186944;28;20066;-67
2021/09/15 05:36:31;;;;;;;14.10;10.25;;;;;;;15.61;85.42;101086.97;10184263;28;20116;-66
2021/09/15 05:41:28;;;;;;;13.05;10.63;;;;;;;15.61;85.46;101076.75;10188552;28;20070;-68
2021/09/15 05:46:24;;;;;;;18.05;10.25;;;;;;;15.62;85.32;101083.06;10180739;28;20144;-68
2021/09/15 05:51:21;;;;;;;13.07;10.07;;;;;;;15.62;85.43;101097.66;10181923;28;20077;-67
2021/09/15 05:56:17;;;;;;;14.30;9.80;;;;;;;15.63;85.74;101093.75;10184141;28;20048;-66
2021/09/15 06:01:14;;;;;;;12.68;9.40;;;;;;;15.67;86.05;101085.63;10185203;28;20487;-66
2021/09/15 06:06:11;;;;;;;12.63;9.98;;;;;;;15.67;85.65;101083.66;10184346;28;20049;-65
2021/09/15 06:11:07;;;;;;;11.80;9.65;;;;;;;15.70;86.25;101085.75;10184088;28;20046;-67
2021/09/15 06:16:06;;;;;;;12.07;9.30;;;;;;;15.71;86.32;101079.09;10184818;28;20053;-67
2021/09/15 06:21:03;;;;;;;15.10;10.90;;;;;;;15.78;86.05;101076.56;10183604;28;20081;-66
2021/09/15 06:26:00;;;;;;;13.57;10.07;;;;;;;15.80;85.49;101067.13;10183902;28;20076;-66
2021/09/15 06:30:58;;;;;;;13.15;11.07;;;;;;;15.85;86.08;101055.88;10182798;28;20052;-66
2021/09/15 06:35:55;;;;;;;13.80;10.68;;;;;;;15.89;86.14;101071.38;10180494;28;20172;-66
2021/09/15 06:40:51;;;;;;;11.70;9.02;;;;;;;15.94;85.91;101056.56;10185776;28;20046;-67
2021/09/15 06:45:47;;;;;;;15.50;10.57;;;;;;;15.98;85.92;101068.50;10184988;28;20471;-66
2021/09/15 06:50:44;;;;;;;18.00;9.25;;;;;;;16.01;85.60;101062.28;10181521;28;20049;-67
2021/09/15 06:55:40;;;;;;;12.23;8.88;;;;;;;16.06;85.29;101075.88;10182906;28;20042;-65
2021/09/15 07:00:37;;;;;;;11.68;9.55;;;;;;;16.04;84.82;101078.16;10174791;28;20376;-66
2021/09/15 07:05:36;;;;;;;14.18;9.48;;;;;;;16.05;84.08;101090.78;10178696;28;20137;-66
2021/09/15 07:10:36;;;;;;;11.00;9.07;;;;;;;16.09;84.43;101091.72;10183605;28;20045;-66
2021/09/15 07:15:33;;;;;;;13.77;9.68;;;;;;;16.12;83.96;101096.53;10182606;28;20046;-67
2021/09/15 07:20:29;;;;;;;12.45;9.25;;;;;;;16.11;83.32;101108.72;10190135;28;20165;-66
2021/09/15 07:25:26;;;;;;;12.32;9.82;;;;;;;16.18;84.24;101106.19;10188169;28;20089;-67
2021/09/15 07:30:22;;;;;;;13.57;9.77;;;;;;;16.22;84.62;101105.50;10188070;28;20077;-66
2021/09/15 07:35:19;;;;;;;11.85;10.15;;;;;;;16.27;84.42;101102.50;10189052;28;20041;-65
2021/09/15 07:40:16;;;;;;;14.15;11.05;;;;;;;16.30;84.39;101096.31;10191110;28;20069;-66
2021/09/15 07:45:13;;;;;;;16.00;10.65;;;;;;;16.33;85.25;101103.88;10186699;28;20045;-66
2021/09/15 07:50:11;;;;;;;15.18;10.93;;;;;;;16.38;85.97;101103.63;10181461;28;20045;-66
2021/09/15 07:55:08;;;;;;;15.32;11.15;;;;;;;16.35;85.45;101112.59;10190510;28;20066;-67
2021/09/15 08:00:05;;;;;;;12.68;10.48;;;;;;;16.37;85.69;101104.78;10187723;28;20152;-66
2021/09/15 08:05:03;;;;;;;13.75;9.63;;;;;;;16.41;85.08;101102.94;10189030;28;20073;-67
2021/09/15 08:09:59;;;;;;;23.40;11.55;;;;;;;16.41;84.72;101105.72;10190224;28;20038;-66
2021/09/15 08:14:56;;;;;;;12.48;10.45;;;;;;;16.42;85.33;101104.53;10185913;28;20160;-66
2021/09/15 08:19:53;;;;;;;15.68;10.38;;;;;;;16.42;85.57;101110.06;10187458;28;20092;-66
2021/09/15 08:24:49;;;;;;;17.17;11.68;;;;;;;16.41;85.91;101111.22;10179849;28;20084;-66
2021/09/15 08:29:45;;;;;;;20.58;11.18;;;;;;;16.43;86.34;101122.72;10187230;28;20073;-66
2021/09/15 08:34:42;;;;;;;17.63;12.65;;;;;;;16.39;86.56;101116.28;10185441;28;20054;-66
2021/09/15 08:39:38;;;;;;;19.58;13.23;;;;;;;16.40;87.18;101118.69;10186560;28;20041;-67
2021/09/15 08:44:36;;;;;;;19.60;13.77;;;;;;;16.44;87.53;101118.00;10187222;28;22592;-67
2021/09/15 08:49:34;;;;;;;19.70;13.38;;;;;;;16.53;87.55;101119.47;10184430;28;20042;-67
2021/09/15 08:54:30;;;;;;;17.83;12.82;;;;;;;16.58;87.78;101108.19;10185746;28;20112;-66
2021/09/15 08:59:27;;;;;;;20.67;13.45;;;;;;;16.67;87.95;101102.53;10184380;28;20070;-66
2021/09/15 09:04:23;;;;;;;20.20;12.98;;;;;;;16.70;87.94;101101.03;10188066;28;20096;-67
2021/09/15 09:09:19;;;;;;;19.83;13.02;;;;;;;16.74;87.98;101115.75;10185428;28;20615;-67
2021/09/15 09:14:17;;;;;;;17.75;12.80;;;;;;;16.72;87.60;101110.56;10186378;28;20408;-65
2021/09/15 09:19:21;;;;;;;18.00;13.65;;;;;;;16.71;87.77;101102.63;10184287;28;20099;-67
2021/09/15 09:24:22;;;;;;;16.42;13.38;;;;;;;16.63;88.32;101107.94;10185928;28;20081;-65
2021/09/15 09:29:33;;;;;;;21.20;15.50;;;;;;;16.66;89.09;101091.81;10183912;28;20511;-66
2021/09/15 09:34:43;;;;;;;19.92;14.27;;;;;;;16.58;89.24;101102.66;10184109;28;20149;-67
2021/09/15 09:39:51;;;;;;;18.27;14.32;;;;;;;16.54;89.83;101090.72;10186622;28;20046;-66
2021/09/15 09:45:09;;;;;;;19.30;14.15;;;;;;;16.50;89.45;101084.31;10184210;28;20037;-66
2021/09/15 09:50:12;;;;;;;23.80;17.60;;;;;;;16.47;90.35;101079.47;10184263;28;20053;-66
2021/09/15 09:55:09;;;;;;;17.77;15.43;;;;;;;16.48;90.12;101075.56;10179566;28;20045;-66
2021/09/15 10:00:06;;;;;;;21.33;17.00;;;;;;;16.50;90.76;101056.69;10183491;28;20081;-67
2021/09/15 10:05:03;;;;;;;22.83;16.48;;;;;;;16.55;91.17;101056.44;10183647;28;20077;-67
2021/09/15 10:09:59;;;;;;;22.65;17.63;;;;;;;16.61;91.42;101052.25;10184318;28;20042;-66
2021/09/15 10:14:59;;;;;;;19.63;16.48;;;;;;;16.67;91.67;101046.53;10185429;28;20042;-67
2021/09/15 10:19:57;;;;;;;20.38;16.42;;;;;;;16.71;91.71;101039.13;10179061;28;20134;-66
2021/09/15 10:24:55;;;;;;;21.17;16.90;;;;;;;16.69;92.25;101035.94;10185427;28;20074;-67
2021/09/15 10:30:10;;;;;;;21.30;16.50;;;;;;;16.69;92.42;101030.41;10181387;28;20053;-66
2021/09/15 10:35:09;;;;;;;20.48;16.80;;;;;;;16.71;92.44;101028.06;10183884;28;20049;-67
2021/09/15 10:40:09;;;;;;;22.77;18.25;;;;;;;16.74;92.71;101016.34;10185679;28;20384;-66
2021/09/15 10:45:09;;;;;;;20.77;15.70;;;;;;;16.79;92.94;101016.13;10186436;28;20042;-66
2021/09/15 10:50:07;;;;;;;23.65;17.83;;;;;;;16.82;93.50;101012.63;10185927;28;20046;-65
2021/09/15 10:55:19;;;;;;;19.83;16.55;;;;;;;16.86;93.55;101013.53;10188395;28;20483;-66
2021/09/15 11:00:21;;;;;;;22.35;18.23;;;;;;;16.85;93.62;101011.13;10189840;28;20050;-66
2021/09/15 11:05:27;;;;;;;22.45;17.55;;;;;;;16.87;94.11;101015.13;10190096;28;20049;-66
2021/09/15 11:10:33;;;;;;;24.95;18.77;;;;;;;16.94;93.95;101015.34;10186625;28;20053;-66
2021/09/15 11:15:32;;;;;;;21.58;18.23;;;;;;;16.90;94.99;101014.44;10191027;28;20095;-67
2021/09/15 11:20:32;;;;;;;25.55;20.27;;;;;;;16.99;94.74;101012.31;10191543;28;20052;-66
2021/09/15 11:25:29;;;;;;;28.85;21.23;;;;;;;16.98;94.78;101010.72;10191778;28;20053;-66
2021/09/15 11:30:25;;;;;;;21.95;19.05;;;;;;;17.01;95.04;101010.00;10188004;28;20130;-66
2021/09/15 11:35:22;;;;;;;28.63;20.38;;;;;;;17.03;95.08;101004.94;10188729;28;20500;-66
2021/09/15 11:40:27;;;;;;;23.52;19.50;;;;;;;17.06;95.14;101002.59;10188362;28;20065;-66
2021/09/15 11:45:24;;;;;;;25.17;19.40;;;;;;;17.08;95.76;100997.53;10189429;28;20050;-67
2021/09/15 11:50:22;;;;;;;28.63;21.35;;;;;;;17.09;95.96;100999.16;10188076;28;20471;-66
2021/09/15 11:55:19;;;;;;;24.67;19.52;;;;;;;17.10;95.84;101007.06;10188395;28;20089;-69
2021/09/15 12:00:16;;;;;;;29.73;21.23;;;;;;;17.13;96.06;101000.06;10187095;28;20050;-66
2021/09/15 12:05:13;;;;;;;24.73;21.75;;;;;;;17.14;95.97;101002.44;10186329;28;20407;-66
2021/09/15 12:10:12;;;;;;;26.80;21.33;;;;;;;17.15;96.34;100997.72;10189037;28;20088;-66
2021/09/15 12:15:09;;;;;;;29.40;21.73;;;;;;;17.14;96.63;100996.13;10189056;28;20046;-66
2021/09/15 12:20:07;;;;;;;24.45;21.73;;;;;;;17.11;96.67;101007.88;10181459;28;20205;-66
2021/09/15 12:25:09;;;;;;;24.27;20.90;;;;;;;17.13;96.53;101000.06;10189280;28;20451;-67
2021/09/15 12:30:12;;;;;;;23.98;20.83;;;;;;;17.13;96.33;101005.56;10183882;28;20086;-66
2021/09/15 12:35:24;;;;;;;29.23;22.30;;;;;;;17.14;96.44;101012.69;10187709;28;20131;-67
2021/09/15 12:40:20;;;;;;;26.67;21.70;;;;;;;17.04;96.28;101003.78;10188610;28;20073;-67
2021/09/15 12:45:17;;;;;;;30.42;22.33;;;;;;;17.03;96.32;101001.34;10186425;28;20058;-66
2021/09/15 12:50:19;;;;;;;27.00;21.55;;;;;;;17.03;96.07;100996.66;10187493;28;20133;-67
2021/09/15 12:55:24;;;;;;;31.13;23.45;;;;;;;17.00;96.63;100979.97;10177542;28;20108;-66
2021/09/15 13:00:25;;;;;;;31.95;24.05;;;;;;;16.92;97.27;100970.72;10180671;28;20042;-66
2021/09/15 13:05:25;;;;;;;33.00;24.83;;;;;;;16.91;97.27;100958.03;10179548;28;20045;-66
2021/09/15 13:10:22;;;;;;;35.55;25.90;;;;;;;16.87;97.75;100945.31;10187804;28;20077;-67
2021/09/15 13:15:19;;;;;;;36.67;25.85;;;;;;;16.80;98.17;100921.06;10188821;28;20523;-66
2021/09/15 13:20:15;;;;;;;32.72;25.05;;;;;;;16.69;99.04;100903.41;10186539;28;20469;-67
2021/09/15 13:25:12;;;;;;;31.60;25.85;;;;;;;16.62;99.02;100882.75;10178527;28;20125;-66
2021/09/15 13:30:11;;;;;;;31.05;24.80;;;;;;;16.50;99.47;100857.16;10184758;28;20710;-67
2021/09/15 13:35:09;;;;;;;28.38;23.33;;;;;;;16.52;99.63;100872.19;10185578;28;20119;-66
2021/09/15 13:40:07;;;;;;;27.67;24.05;;;;;;;16.55;99.24;100882.56;10185150;28;20046;-66
2021/09/15 13:45:04;;;;;;;29.73;23.80;;;;;;;16.54;98.89;100891.97;10184989;28;20459;-67
2021/09/15 13:50:03;;;;;;;40.58;30.67;;;;;;;16.56;98.93;100886.91;10185625;28;20439;-66
2021/09/15 13:55:00;;;;;;;36.53;28.10;;;;;;;16.57;98.91;100880.25;10183139;28;20112;-67
2021/09/15 13:59:56;;;;;;;31.58;25.92;;;;;;;16.56;99.04;100884.16;10183390;28;20504;-67
2021/09/15 14:04:53;;;;;;;32.30;26.42;;;;;;;16.58;98.98;100876.31;10184972;28;20137;-67
2021/09/15 14:09:49;;;;;;;32.90;27.52;;;;;;;16.58;99.09;100890.13;10185652;28;20042;-67
2021/09/15 14:15:06;;;;;;;33.30;27.60;;;;;;;16.59;98.95;100888.97;10183663;28;20431;-69
2021/09/15 14:20:03;;;;;;;29.65;25.40;;;;;;;16.62;99.14;100893.78;10185202;28;20104;-66
2021/09/15 14:24:59;;;;;;;27.77;23.83;;;;;;;16.65;99.20;100891.47;10184641;28;20038;-66
2021/09/15 14:29:56;;;;;;;31.17;24.45;;;;;;;16.68;99.36;100891.53;10192443;28;20107;-67
2021/09/15 14:34:52;;;;;;;30.08;24.58;;;;;;;16.72;99.22;100899.94;10192231;28;20050;-66
2021/09/15 14:39:49;;;;;;;35.30;27.60;;;;;;;16.74;99.19;100908.66;10192967;28;20042;-66
2021/09/15 14:44:48;;;;;;;29.50;24.85;;;;;;;16.77;99.30;100905.97;10188790;28;20100;-67
2021/09/15 14:49:44;;;;;;;33.22;26.15;;;;;;;16.80;98.99;100910.03;10191530;28;20041;-67
2021/09/15 14:54:41;;;;;;;31.35;25.38;;;;;;;16.81;98.90;100917.16;10190393;28;20535;-67
2021/09/15 14:59:38;;;;;;;30.13;25.27;;;;;;;16.80;98.82;100921.06;10187999;28;20063;-66
2021/09/15 15:04:35;;;;;;;28.98;24.38;;;;;;;16.80;99.01;100921.06;10189962;28;20123;-67
2021/09/15 15:09:33;;;;;;;33.67;22.77;;;;;;;16.78;98.79;100906.81;10190867;28;20080;-66
2021/09/15 15:14:29;;;;;;;26.98;23.65;;;;;;;16.84;98.64;100888.81;10194625;28;20042;-68
2021/09/15 15:19:30;;;;;;;31.10;24.95;;;;;;;16.83;98.66;100873.44;10193474;28;20045;-67
2021/09/15 15:24:28;;;;;;;33.60;28.00;;;;;;;16.89;98.62;100862.91;10191762;28;20100;-67
2021/09/15 15:29:25;;;;;;;29.30;25.40;;;;;;;16.97;99.38;100864.69;10192662;28;20583;-67
2021/09/15 15:34:22;;;;;;;35.13;28.50;;;;;;;17.01;99.65;100866.38;10191093;28;20065;-67
2021/09/15 15:39:18;;;;;;;31.02;26.58;;;;;;;17.09;100.00;100861.03;10188561;28;20160;-68
2021/09/15 15:44:15;;;;;;;25.52;22.10;;;;;;;17.17;100.00;100857.25;10182527;28;20148;-67
2021/09/15 15:49:12;;;;;;;27.25;23.73;;;;;;;17.18;100.00;100859.66;10183311;28;20131;-67
2021/09/15 15:54:09;;;;;;;27.90;23.40;;;;;;;17.26;100.00;100866.16;10186608;28;20070;-68
2021/09/15 15:59:05;;;;;;;29.42;24.60;;;;;;;17.29;100.00;100870.16;10184983;28;20128;-67
2021/09/15 16:04:05;;;;;;;30.73;24.00;;;;;;;17.36;100.00;100873.91;10186479;28;20100;-68
2021/09/15 16:09:01;;;;;;;24.33;21.58;;;;;;;17.41;99.63;100873.63;10187070;28;20091;-67
2021/09/15 16:13:59;;;;;;;28.63;24.30;;;;;;;17.42;99.60;100866.91;10183963;28;20052;-67
2021/09/15 16:18:57;;;;;;;25.63;22.88;;;;;;;17.45;99.89;100874.50;10182518;28;20046;-67
2021/09/15 16:23:54;;;;;;;25.95;22.20;;;;;;;17.58;99.76;100861.34;10184779;28;20076;-67
2021/09/15 16:28:50;;;;;;;26.10;22.58;;;;;;;17.72;99.42;100844.25;10180798;28;20104;-67
2021/09/15 16:33:48;;;;;;;30.15;24.27;;;;;;;17.68;99.34;100846.13;10187899;28;20475;-67
2021/09/15 16:38:45;;;;;;;26.50;23.13;;;;;;;17.63;99.20;100846.44;10184065;28;20088;-67
2021/09/15 16:43:43;;;;;;;24.52;21.98;;;;;;;17.58;99.16;100843.97;10185708;28;20100;-67
2021/09/15 16:48:39;;;;;;;27.02;22.45;;;;;;;17.54;99.11;100837.53;10181434;28;20042;-67
2021/09/15 16:53:37;;;;;;;25.10;22.40;;;;;;;17.52;98.73;100846.22;10184482;28;20050;-66
2021/09/15 16:58:34;;;;;;;24.63;22.02;;;;;;;17.50;98.88;100845.78;10184693;28;20096;-67
2021/09/15 17:03:30;;;;;;;34.35;27.70;;;;;;;17.44;99.01;100856.31;10184591;28;20045;-67
2021/09/15 17:08:26;;;;;;;30.15;24.10;;;;;;;17.39;99.21;100864.88;10181852;28;20046;-67
2021/09/15 17:13:23;;;;;;;28.52;24.08;;;;;;;17.35;99.30;100868.72;10182065;28;20124;-67
2021/09/15 17:18:19;;;;;;;26.27;23.35;;;;;;;17.35;99.14;100869.53;10183481;28;20153;-67
2021/09/15 17:23:16;;;;;;;27.70;24.00;;;;;;;17.33;98.95;100866.31;10183627;28;21448;-68
2021/09/15 17:28:13;;;;;;;34.40;27.83;;;;;;;17.31;99.10;100868.63;10180611;28;20103;-67
2021/09/15 17:33:10;;;;;;;26.10;23.25;;;;;;;17.31;99.90;100865.88;10177386;28;20151;-67
2021/09/15 17:38:07;;;;;;;31.88;22.92;;;;;;;17.31;99.40;100867.84;10178393;28;20054;-67
2021/09/15 17:43:06;;;;;;;30.88;24.27;;;;;;;17.28;99.54;100863.03;10182013;28;20053;-67
2021/09/15 17:48:03;;;;;;;30.20;24.60;;;;;;;17.27;99.89;100866.94;10183655;28;20786;-69
2021/09/15 17:52:59;;;;;;;32.38;22.25;;;;;;;17.28;99.76;100871.31;10179915;28;20099;-68
2021/09/15 17:57:56;;;;;;;28.48;25.20;;;;;;;17.27;99.81;100867.78;10172807;28;20049;-67
2021/09/15 18:02:52;;;;;;;29.13;25.20;;;;;;;17.23;99.75;100861.34;10180664;28;20073;-67
2021/09/15 18:07:51;;;;;;;32.85;23.83;;;;;;;17.17;99.61;100857.25;10173788;28;20466;-67
2021/09/15 18:12:47;;;;;;;30.40;22.83;;;;;;;17.16;99.59;100844.63;10173178;28;20133;-68
2021/09/15 18:17:44;;;;;;;27.88;24.52;;;;;;;17.12;99.57;100843.72;10180452;28;20046;-68
2021/09/15 18:22:41;;;;;;;37.80;30.15;;;;;;;17.09;99.59;100861.03;10174179;28;20684;-68
2021/09/15 18:27:38;;;;;;;35.88;30.80;;;;;;;17.07;99.72;100872.44;10171018;28;20501;-66
2021/09/15 18:32:35;;;;;;;35.05;25.73;;;;;;;17.11;100.00;100869.75;10176113;28;20092;-68
2021/09/15 18:37:32;;;;;;;34.47;25.48;;;;;;;17.11;100.00;100867.78;10174968;28;20527;-67
2021/09/15 18:42:30;;;;;;;33.97;29.58;;;;;;;17.12;100.00;100876.88;10181812;28;20519;-67
2021/09/15 18:47:26;;;;;;;31.52;23.60;;;;;;;17.14;100.00;100880.09;10175583;28;20145;-68
2021/09/15 18:52:24;;;;;;;26.25;23.25;;;;;;;17.16;100.00;100872.25;10179209;28;20821;-67
2021/09/15 18:57:20;;;;;;;28.38;23.85;;;;;;;17.20;100.00;100873.94;10173139;28;20137;-68
2021/09/15 19:02:17;;;;;;;28.95;25.65;;;;;;;17.20;100.00;100878.66;10176643;28;20116;-68
2021/09/15 19:07:13;;;;;;;32.28;25.98;;;;;;;17.20;100.00;100881.41;10173568;28;20128;-68
2021/09/15 19:12:10;;;;;;;28.42;25.33;;;;;;;17.20;100.00;100881.41;10177771;28;20128;-68
2021/09/15 19:17:06;;;;;;;29.23;26.15;;;;;;;17.20;100.00;100879.47;10185928;28;20046;-68
2021/09/15 19:22:03;;;;;;;29.92;25.33;;;;;;;17.20;100.00;100887.75;10182177;28;20092;-65
2021/09/15 19:27:00;;;;;;;25.75;23.02;;;;;;;17.18;100.00;100880.97;10169980;28;20117;-68
2021/09/15 19:31:56;;;;;;;29.55;24.17;;;;;;;17.16;100.00;100878.56;10179663;28;20141;-67
2021/09/15 19:36:53;;;;;;;29.15;22.98;;;;;;;17.17;100.00;100895.94;10180844;28;20733;-68
2021/09/15 19:41:52;;;;;;;29.50;23.52;;;;;;;17.15;100.00;100893.56;10185368;28;20096;-66
2021/09/15 19:46:48;;;;;;;29.15;23.35;;;;;;;17.15;100.00;100892.72;10175804;28;20081;-67
2021/09/15 19:51:45;;;;;;;25.73;22.10;;;;;;;17.19;100.00;100901.91;10184459;28;20085;-68
2021/09/15 19:56:42;;;;;;;27.15;24.33;;;;;;;17.22;100.00;100903.97;10178552;28;20049;-65
2021/09/15 20:01:39;;;;;;;27.73;24.42;;;;;;;17.25;100.00;100903.25;10180287;28;20046;-65
2021/09/15 20:06:35;;;;;;;33.20;26.65;;;;;;;17.27;100.00;100911.16;10179424;28;20133;-69
2021/09/15 20:11:32;;;;;;;32.70;25.70;;;;;;;17.27;100.00;100905.63;10181272;28;20046;-67
2021/09/15 20:16:29;;;;;;;30.25;26.05;;;;;;;17.30;100.00;100908.50;10178128;28;20060;-65
2021/09/15 20:21:25;;;;;;;33.42;27.80;;;;;;;17.27;100.00;100911.97;10182461;28;20511;-70
2021/09/15 20:26:22;;;;;;;34.00;28.33;;;;;;;17.27;100.00;100917.50;10181502;28;20532;-71
2021/09/15 20:31:19;;;;;;;31.40;28.00;;;;;;;17.27;100.00;100914.75;10185353;28;20073;-69
2021/09/15 20:36:16;;;;;;;37.17;27.20;;;;;;;17.30;100.00;100919.53;10184397;28;20482;-69
2021/09/15 20:41:12;;;;;;;38.70;29.63;;;;;;;17.29;100.00;100920.72;10189133;28;20488;-69
2021/09/15 20:46:09;;;;;;;40.13;31.67;;;;;;;17.31;100.00;100923.91;10185143;28;20504;-69
2021/09/15 20:51:06;;;;;;;38.00;30.65;;;;;;;17.27;100.00;100931.31;10187508;28;20487;-69
2021/09/15 20:56:03;;;;;;;45.85;33.83;;;;;;;17.22;100.00;100926.88;10186511;28;20042;-69
2021/09/15 21:00:59;;;;;;;42.67;33.00;;;;;;;17.21;100.00;100921.69;10187253;28;20073;-67
2021/09/15 21:05:57;;;;;;;47.58;35.22;;;;;;;17.17;100.00;100929.09;10186707;28;20826;-69
2021/09/15 21:10:54;;;;;;;47.22;35.42;;;;;;;17.19;100.00;100938.63;10189979;28;20415;-68
2021/09/15 21:15:51;;;;;;;43.42;32.85;;;;;;;17.20;100.00;100939.44;10188867;28;20068;-69
2021/09/15 21:20:48;;;;;;;53.25;37.17;;;;;;;17.18;100.00;100937.03;10188558;28;20198;-68
2021/09/15 21:25:45;;;;;;;50.83;35.17;;;;;;;17.19;100.00;100940.59;10185949;28;20042;-69
2021/09/15 21:30:42;;;;;;;56.10;36.97;;;;;;;17.22;100.00;100935.16;10186890;28;20065;-70
2021/09/15 21:35:38;;;;;;;51.00;37.00;;;;;;;17.22;100.00;100937.13;10184182;28;20132;-70
2021/09/15 21:40:35;;;;;;;57.25;39.85;;;;;;;17.23;100.00;100927.66;10184392;28;20069;-67
2021/09/15 21:45:31;;;;;;;49.58;35.55;;;;;;;17.21;100.00;100941.03;10186202;28;20081;-70
2021/09/15 21:50:28;;;;;;;47.88;34.30;;;;;;;17.18;100.00;100939.00;10186743;28;20046;-67
2021/09/15 21:55:25;;;;;;;53.17;34.33;;;;;;;17.12;100.00;100932.13;10186029;28;20058;-69
2021/09/15 22:00:46;;;;;;;61.10;37.80;;;;;;;17.10;100.00;100928.91;10185997;28;20073;-69
2021/09/15 22:05:45;;;;;;;54.83;36.35;;;;;;;17.01;100.00;100943.72;10183936;28;20124;-69
2021/09/15 22:10:43;;;;;;;46.60;28.88;;;;;;;16.98;100.00;100949.94;10185496;28;20476;-68
2021/09/15 22:15:39;;;;;;;40.97;26.52;;;;;;;16.95;100.00;100956.19;10187732;28;20042;-69
2021/09/15 22:20:36;;;;;;;33.63;22.13;;;;;;;16.87;100.00;100954.38;10183756;28;20618;-70
2021/09/15 22:25:34;;;;;;;29.45;18.80;;;;;;;16.87;100.00;100954.38;10185553;28;20046;-70
2021/09/15 22:30:30;;;;;;;26.67;17.15;;;;;;;16.79;100.00;100960.88;10186061;28;21778;-70